Skip Navigation Links
NOAA logo - Click to go to the NOAA homepage
NOAA's National Weather Service
Alaska Aviation Weather Unit
  NWS logo - Click to go to the NWS homepage
Left Navbar Graphic     09 AKDT = 17 GMT

   
NOAA is celebrating 200 years of science, service, and stewardship. Visit the NOAA 200th celebration Web site to learn more.
USA.gov is the U.S. Government's official Web portal to all Federal, state and local government Web resources and services.
Facebook
NWS on Facebook

Important Change Regarding the AAWU Web Presence

 

Over the last several months, the AAWU has been working to navigate its webpages to a nationally supported server. Security, as well as other needs, have necessitated the change.  In the process, we have made an effort to enhance the functionality of our website, as well as some of our products. As of June 20, 2017, aawu.arh.noaa.gov will be discontinued. The new AAWU web address is weather.gov/aawu. It is now live and will run in-parallel with the old site until it is discontinued. Please send any feedback or questions regarding the new webpages to nws.ar.aawu.webauthors@noaa.gov.  Thank you for your patience during this time of transition.
AAWU Home :: Display TAF Add Bookmark
TAF PANC 231442Z 2315/2418 19008KT P6SM SCT045 BKN120
      TEMPO 2315/2318 BKN045
     FM232100 22012KT P6SM SCT080 BKN150
     FM240900 15013G20KT P6SM VCSH SCT040 OVC060
     FM241500 16015G25KT 6SM -RA OVC025=
METAR PANC 231153Z 19004KT 10SM SCT037 BKN050 BKN160 07/04 A2998=

METAR PANC 231253Z 18004KT 10SM SCT050 OVC160 06/04 A2999=

METAR PANC 231353Z 18005KT 10SM SCT037 BKN049 OVC130 07/03 A2999=

METAR PANC 231453Z 19005KT 10SM SCT039 SCT070 BKN130 08/02 A2999=

METAR PANC 231553Z 18008KT 10SM SCT039 BKN055 BKN130 08/02 A2999=

METAR PANC 231653Z 19009KT 150V220 10SM FEW035 BKN045 09/02 A2999 RMK
     AO2 SLP156 T00890022=


NOAA's National Weather Service
Alaska Aviation Weather Unit
6930 Sand Lake Road
Anchorage, AK 99502-1845
Disclaimer
Credits
Glossary
Privacy Policy
About Us
Career Opportunities
Contact AAWU Internet Services Site last modified: April, 17th 2012